Time;durP1;ratioP1;P1;durP2;ratioP2;P2;SDS_P1;SDS_P2;PMS_P1;PMS_P2;Temp;Humidity;BMP_temperature;BMP_pressure;BME280_temperature;BME280_humidity;BME280_pressure;Samples;Min_cycle;Max_cycle;Signal;HPM_P1;HPM_P2
2023/02/09 00:01:18;;;;;;;36.20;20.63;;;19.40;30.40;;;;;;5033307;28;20052;-65
2023/02/09 00:03:46;;;;;;;29.75;20.23;;;19.40;30.40;;;;;;5034477;28;20060;-64
2023/02/09 00:06:16;;;;;;;31.55;21.20;;;19.40;30.40;;;;;;5032903;28;20045;-64
2023/02/09 00:08:43;;;;;;;34.00;21.88;;;19.40;30.30;;;;;;5015396;28;20128;-64
2023/02/09 00:13:21;;;;;;;31.92;21.08;;;19.40;30.30;;;;;;5033156;28;20072;-64
2023/02/09 00:14:10;;;;;;;31.83;21.25;;;19.40;30.30;;;;;;5034289;28;20076;-64
2023/02/09 00:16:37;;;;;;;30.67;20.33;;;19.40;30.30;;;;;;5031515;28;20045;-64
2023/02/09 00:19:04;;;;;;;33.20;20.73;;;19.40;30.30;;;;;;5033670;28;20049;-65
2023/02/09 00:21:32;;;;;;;31.17;20.52;;;19.40;30.30;;;;;;5033247;28;20050;-64
2023/02/09 00:23:59;;;;;;;32.15;20.05;;;19.40;30.30;;;;;;5032956;28;20056;-64
2023/02/09 00:26:26;;;;;;;30.23;20.65;;;19.40;30.30;;;;;;5033381;28;20053;-64
2023/02/09 00:28:53;;;;;;;31.80;20.55;;;19.40;30.30;;;;;;5032293;28;20046;-64
2023/02/09 00:31:20;;;;;;;29.73;20.63;;;19.40;30.30;;;;;;5033058;28;20405;-65
2023/02/09 00:33:48;;;;;;;32.97;21.25;;;19.30;30.20;;;;;;5033036;28;20046;-64
2023/02/09 00:36:15;;;;;;;29.52;20.33;;;19.30;30.20;;;;;;5034026;28;20453;-65
2023/02/09 00:38:43;;;;;;;30.67;21.13;;;19.30;30.20;;;;;;5033769;28;20549;-64
2023/02/09 00:41:12;;;;;;;29.10;20.45;;;19.30;30.20;;;;;;5033420;28;20049;-64
2023/02/09 00:43:40;;;;;;;31.13;20.20;;;19.30;30.20;;;;;;5034014;28;20048;-64
2023/02/09 00:46:07;;;;;;;32.70;20.30;;;19.30;30.20;;;;;;5033478;28;20049;-65
2023/02/09 00:48:35;;;;;;;32.10;21.02;;;19.30;30.20;;;;;;5033392;28;20045;-64
2023/02/09 00:51:02;;;;;;;29.40;19.90;;;19.30;30.20;;;;;;5032924;28;20438;-64
2023/02/09 00:53:29;;;;;;;30.42;20.52;;;19.30;30.20;;;;;;5033805;28;20409;-64
2023/02/09 00:55:56;;;;;;;29.63;20.33;;;19.30;30.20;;;;;;5032922;28;20055;-64
2023/02/09 00:58:23;;;;;;;33.40;21.30;;;19.30;30.10;;;;;;5033148;28;20408;-64
2023/02/09 01:00:50;;;;;;;29.88;21.80;;;19.30;30.20;;;;;;5033413;28;20132;-64
2023/02/09 01:03:17;;;;;;;29.23;21.00;;;19.30;30.20;;;;;;5032048;28;20045;-64
2023/02/09 01:05:44;;;;;;;29.08;20.60;;;19.30;30.10;;;;;;5030050;28;20064;-64
2023/02/09 01:08:12;;;;;;;29.52;19.70;;;19.20;30.10;;;;;;5030205;28;20049;-65
2023/02/09 01:10:39;;;;;;;27.80;19.88;;;19.20;30.10;;;;;;5028790;28;20052;-64
2023/02/09 01:13:07;;;;;;;33.45;21.35;;;19.30;30.20;;;;;;5033125;28;20417;-64
2023/02/09 01:15:34;;;;;;;29.35;19.27;;;19.30;30.20;;;;;;5015048;28;20050;-64
2023/02/09 01:18:01;;;;;;;30.45;20.27;;;19.30;30.20;;;;;;5032684;28;20054;-64
2023/02/09 01:20:28;;;;;;;28.40;19.98;;;19.30;30.20;;;;;;5031264;28;20132;-65
2023/02/09 01:22:55;;;;;;;29.73;20.70;;;19.20;30.10;;;;;;5014293;28;20482;-64
2023/02/09 01:25:23;;;;;;;27.75;19.05;;;19.20;30.10;;;;;;5032397;28;20103;-64
2023/02/09 01:27:50;;;;;;;30.85;19.88;;;19.30;30.10;;;;;;5032280;28;20045;-64
2023/02/09 01:30:17;;;;;;;31.77;19.92;;;19.30;30.10;;;;;;5031705;28;20111;-64
2023/02/09 01:32:44;;;;;;;30.02;20.75;;;19.30;30.10;;;;;;5031508;28;20037;-64
2023/02/09 01:35:11;;;;;;;31.70;21.38;;;19.30;30.00;;;;;;5031339;28;20045;-64
2023/02/09 01:37:38;;;;;;;30.17;20.65;;;19.30;30.60;;;;;;5006942;28;20129;-65
2023/02/09 01:40:06;;;;;;;29.95;20.05;;;19.30;30.00;;;;;;5011189;28;20477;-64
2023/02/09 01:42:34;;;;;;;29.10;19.77;;;19.30;30.00;;;;;;5012612;28;20052;-64
2023/02/09 01:45:21;;;;;;;27.70;19.65;;;19.30;30.00;;;;;;5013071;28;20052;-64
2023/02/09 01:47:55;;;;;;;27.48;19.73;;;19.20;30.00;;;;;;5012843;28;20050;-64
2023/02/09 01:50:24;;;;;;;29.10;19.80;;;19.20;30.00;;;;;;5001705;28;20046;-65
2023/02/09 01:52:52;;;;;;;30.75;19.52;;;19.20;30.00;;;;;;5011546;28;20049;-64
2023/02/09 01:55:24;;;;;;;27.73;18.65;;;19.20;30.00;;;;;;5011023;28;20393;-65
2023/02/09 01:57:59;;;;;;;29.20;20.00;;;19.20;30.00;;;;;;5011683;28;20048;-64
2023/02/09 02:00:27;;;;;;;28.58;19.50;;;19.20;30.00;;;;;;5004925;28;20050;-64
2023/02/09 02:02:59;;;;;;;27.00;18.58;;;19.20;30.00;;;;;;5012352;28;20053;-64
2023/02/09 02:05:28;;;;;;;29.45;18.88;;;19.20;30.00;;;;;;5015813;28;20041;-64
2023/02/09 02:08:22;;;;;;;28.50;18.70;;;19.20;30.00;;;;;;5032421;28;20049;-64
2023/02/09 02:10:51;;;;;;;28.80;19.05;;;19.20;30.00;;;;;;5030770;28;20041;-64
2023/02/09 02:13:19;;;;;;;27.13;18.30;;;19.20;30.00;;;;;;5032384;28;20077;-64
2023/02/09 02:16:25;;;;;;;26.45;18.98;;;19.20;29.90;;;;;;5030818;28;20049;-64
2023/02/09 02:19:32;;;;;;;27.63;18.30;;;19.20;29.90;;;;;;5016562;28;20072;-64
2023/02/09 02:22:31;;;;;;;26.08;18.85;;;19.20;30.00;;;;;;5016322;28;20073;-64
2023/02/09 02:25:33;;;;;;;26.25;18.02;;;19.10;29.90;;;;;;5031120;28;20157;-64
2023/02/09 02:28:40;;;;;;;27.55;18.48;;;19.10;29.90;;;;;;5031423;28;20481;-64
2023/02/09 02:31:47;;;;;;;25.52;17.38;;;19.10;29.90;;;;;;5031620;28;20054;-64
2023/02/09 02:34:44;;;;;;;28.08;18.90;;;19.10;29.90;;;;;;5020464;28;20079;-64
2023/02/09 02:37:44;;;;;;;27.58;18.63;;;19.10;29.90;;;;;;5032523;28;20409;-64
2023/02/09 02:40:40;;;;;;;27.02;17.70;;;19.10;29.90;;;;;;5035424;28;20060;-64
2023/02/09 02:43:40;;;;;;;26.10;17.77;;;19.10;29.90;;;;;;5033388;28;20047;-64
2023/02/09 02:46:47;;;;;;;28.85;18.58;;;19.10;29.90;;;;;;5022253;28;20056;-64
2023/02/09 02:49:30;;;;;;;23.13;16.58;;;19.10;29.90;;;;;;5035252;28;20045;-64
2023/02/09 02:52:02;;;;;;;22.98;16.27;;;19.10;29.90;;;;;;5033766;28;20136;-64
2023/02/09 02:54:35;;;;;;;26.17;18.55;;;19.10;29.80;;;;;;5034836;28;20082;-65
2023/02/09 02:57:07;;;;;;;27.63;17.98;;;19.10;29.80;;;;;;5035029;28;20045;-64
2023/02/09 02:59:44;;;;;;;26.00;17.40;;;19.10;29.80;;;;;;5018484;28;20045;-65
2023/02/09 03:02:21;;;;;;;26.55;17.90;;;19.10;29.80;;;;;;5035156;28;20133;-64
2023/02/09 03:04:51;;;;;;;27.00;18.23;;;19.10;29.80;;;;;;5035421;28;20501;-64
2023/02/09 03:07:18;;;;;;;24.33;17.02;;;19.10;29.80;;;;;;5035309;28;20132;-64
2023/02/09 03:09:54;;;;;;;25.77;16.95;;;19.10;29.80;;;;;;5032071;28;20464;-64
2023/02/09 03:12:56;;;;;;;24.25;17.35;;;19.10;29.80;;;;;;5007011;28;20046;-65
2023/02/09 03:15:41;;;;;;;25.40;16.63;;;19.10;29.80;;;;;;5007651;28;20383;-65
2023/02/09 03:18:21;;;;;;;24.27;15.77;;;19.00;29.70;;;;;;5013400;28;20048;-65
2023/02/09 03:21:00;;;;;;;23.60;16.90;;;19.10;29.80;;;;;;5013127;28;20041;-65
2023/02/09 03:24:06;;;;;;;23.77;16.13;;;19.00;29.80;;;;;;5006271;28;20056;-64
2023/02/09 03:26:42;;;;;;;24.80;16.50;;;19.10;29.80;;;;;;5014595;28;20049;-64
2023/02/09 03:29:11;;;;;;;25.08;16.98;;;19.10;29.80;;;;;;4998587;28;20050;-64
2023/02/09 03:31:39;;;;;;;22.55;15.75;;;19.10;29.80;;;;;;5015537;28;20062;-64
2023/02/09 03:34:08;;;;;;;23.05;15.55;;;19.10;29.80;;;;;;5015417;28;20042;-64
2023/02/09 03:36:37;;;;;;;26.13;15.82;;;19.10;29.80;;;;;;5015134;28;20056;-65
2023/02/09 03:39:05;;;;;;;22.08;15.63;;;19.10;29.80;;;;;;5015219;28;20069;-64
2023/02/09 03:41:32;;;;;;;22.85;16.02;;;19.10;29.80;;;;;;5014534;28;20077;-64
2023/02/09 03:46:46;;;;;;;22.10;15.40;;;19.10;29.70;;;;;;5013524;28;20054;-64
2023/02/09 03:49:16;;;;;;;23.90;15.45;;;19.10;29.70;;;;;;5014608;28;20050;-64
2023/02/09 03:51:43;;;;;;;23.55;15.25;;;19.10;29.70;;;;;;5012913;28;20140;-65
2023/02/09 03:54:10;;;;;;;21.02;15.23;;;19.10;29.70;;;;;;5031211;28;20045;-64
2023/02/09 03:56:37;;;;;;;22.88;15.27;;;19.00;29.60;;;;;;5034204;28;20517;-66
2023/02/09 03:59:05;;;;;;;23.50;15.57;;;19.00;29.60;;;;;;5019989;28;20577;-64
2023/02/09 04:01:32;;;;;;;22.63;14.63;;;19.00;29.60;;;;;;5014226;28;20133;-64
2023/02/09 04:04:01;;;;;;;21.90;14.15;;;19.00;29.60;;;;;;5014928;28;20128;-64
2023/02/09 04:06:30;;;;;;;21.17;15.05;;;19.00;29.60;;;;;;5014397;28;20053;-64
2023/02/09 04:08:58;;;;;;;23.63;16.23;;;19.00;29.60;;;;;;4995893;28;20417;-64
2023/02/09 04:11:26;;;;;;;20.10;14.48;;;19.00;29.60;;;;;;5014237;28;20113;-64
2023/02/09 04:13:54;;;;;;;21.30;14.63;;;19.00;29.60;;;;;;5011110;28;20049;-64
2023/02/09 04:16:21;;;;;;;22.95;15.40;;;19.00;29.60;;;;;;5012990;28;20054;-64
2023/02/09 04:18:48;;;;;;;21.50;14.82;;;19.00;29.60;;;;;;5013640;28;20053;-65
2023/02/09 04:21:15;;;;;;;22.27;15.07;;;19.00;29.60;;;;;;5013309;28;20132;-64
2023/02/09 04:23:42;;;;;;;20.95;15.32;;;19.00;29.60;;;;;;5013665;28;20513;-65
2023/02/09 04:26:10;;;;;;;22.30;14.80;;;19.00;29.50;;;;;;5013269;28;20486;-64
2023/02/09 04:28:37;;;;;;;23.52;14.88;;;19.00;29.50;;;;;;5013495;28;20049;-64
2023/02/09 04:31:04;;;;;;;20.70;14.13;;;19.00;29.50;;;;;;5013469;28;20104;-64
2023/02/09 04:33:31;;;;;;;19.55;14.00;;;19.00;29.50;;;;;;5013403;28;20053;-64
2023/02/09 04:35:59;;;;;;;22.80;14.98;;;18.90;29.50;;;;;;5013860;28;20132;-64
2023/02/09 04:38:26;;;;;;;23.95;15.43;;;18.90;29.50;;;;;;5006589;28;20490;-64
2023/02/09 04:40:54;;;;;;;20.40;14.00;;;18.90;29.50;;;;;;5013383;28;20455;-65
2023/02/09 04:43:22;;;;;;;19.02;13.73;;;18.90;29.50;;;;;;5013635;28;20401;-65
2023/02/09 04:45:49;;;;;;;21.60;14.98;;;18.90;29.50;;;;;;5011518;28;20458;-65
2023/02/09 04:48:19;;;;;;;23.80;15.23;;;18.90;29.50;;;;;;5013892;28;20068;-65
2023/02/09 04:50:46;;;;;;;19.73;13.57;;;18.90;29.50;;;;;;5012903;28;20054;-66
2023/02/09 04:53:14;;;;;;;19.75;14.30;;;18.90;29.50;;;;;;5012648;28;20060;-65
2023/02/09 04:55:43;;;;;;;22.63;15.65;;;18.90;29.50;;;;;;5018970;28;20408;-64
2023/02/09 05:00:59;;;;;;;21.13;13.48;;;18.90;29.50;;;;;;5033021;28;20128;-65
2023/02/09 05:03:27;;;;;;;21.48;14.85;;;18.90;29.40;;;;;;5033633;28;20053;-64
2023/02/09 05:05:59;;;;;;;22.75;14.93;;;18.90;29.40;;;;;;5032917;28;20045;-64
2023/02/09 05:08:27;;;;;;;21.00;14.43;;;18.90;29.40;;;;;;5015528;28;20049;-64
2023/02/09 05:10:55;;;;;;;20.42;14.05;;;18.90;29.40;;;;;;5033350;28;20458;-65
2023/02/09 05:13:23;;;;;;;20.60;14.18;;;18.90;29.40;;;;;;5032988;28;20136;-64
2023/02/09 05:15:50;;;;;;;21.98;14.07;;;18.90;29.40;;;;;;5033018;28;20402;-66
2023/02/09 05:18:17;;;;;;;21.50;14.27;;;18.90;29.40;;;;;;5032889;28;20049;-64
2023/02/09 05:20:46;;;;;;;20.67;13.80;;;18.90;29.40;;;;;;5018943;28;20048;-64
2023/02/09 05:23:14;;;;;;;17.55;13.25;;;18.90;29.40;;;;;;5012237;28;20490;-64
2023/02/09 05:25:41;;;;;;;18.60;12.98;;;18.90;29.40;;;;;;5012607;28;20073;-64
2023/02/09 05:28:08;;;;;;;18.23;12.70;;;18.90;29.40;;;;;;5012732;28;20048;-64
2023/02/09 05:30:36;;;;;;;17.63;12.75;;;18.90;29.40;;;;;;5012651;28;20081;-64
2023/02/09 05:33:03;;;;;;;19.90;13.88;;;18.90;29.50;;;;;;5012275;28;20516;-64
2023/02/09 05:35:30;;;;;;;22.10;14.50;;;18.90;29.50;;;;;;5008066;28;20490;-64
2023/02/09 05:37:57;;;;;;;22.05;14.68;;;18.90;29.40;;;;;;5012651;28;20136;-64
2023/02/09 05:40:24;;;;;;;20.58;14.57;;;18.90;29.20;;;;;;5011223;28;20473;-64
2023/02/09 05:42:52;;;;;;;22.35;16.02;;;18.80;29.10;;;;;;5011892;28;20129;-64
2023/02/09 05:45:19;;;;;;;22.25;15.77;;;18.80;29.10;;;;;;5024504;28;20148;-64
2023/02/09 05:47:46;;;;;;;21.40;14.52;;;18.80;29.00;;;;;;5029158;28;20489;-64
2023/02/09 05:50:13;;;;;;;20.80;15.07;;;18.70;29.00;;;;;;5017779;28;20048;-64
2023/02/09 05:52:41;;;;;;;23.85;15.38;;;18.70;29.00;;;;;;5011563;28;20050;-64
2023/02/09 05:55:08;;;;;;;21.98;15.43;;;18.70;28.90;;;;;;5014226;28;20145;-64
2023/02/09 05:57:35;;;;;;;21.67;14.30;;;18.70;29.00;;;;;;5018960;28;20049;-64
2023/02/09 06:00:04;;;;;;;22.20;14.23;;;18.70;28.90;;;;;;5013427;28;20089;-64
2023/02/09 06:02:32;;;;;;;19.88;14.48;;;18.70;29.00;;;;;;5032387;28;20057;-64
2023/02/09 06:04:59;;;;;;;20.77;14.10;;;18.70;29.00;;;;;;5031938;28;20041;-64
2023/02/09 06:07:26;;;;;;;19.65;14.82;;;18.70;29.00;;;;;;5011370;28;20066;-64
2023/02/09 06:09:53;;;;;;;20.10;13.82;;;18.70;29.00;;;;;;5009696;28;20038;-63
2023/02/09 06:12:20;;;;;;;24.45;15.38;;;18.70;29.10;;;;;;5006178;28;20053;-64
2023/02/09 06:14:48;;;;;;;21.92;13.85;;;18.70;29.10;;;;;;5006597;28;20052;-63
2023/02/09 06:17:15;;;;;;;21.58;15.10;;;18.70;29.10;;;;;;5007879;28;20054;-62
2023/02/09 06:19:42;;;;;;;21.55;14.52;;;18.70;29.20;;;;;;5014678;28;20049;-62
2023/02/09 06:22:09;;;;;;;20.00;14.05;;;18.80;29.30;;;;;;5015250;28;20477;-63
2023/02/09 06:24:36;;;;;;;22.95;15.48;;;18.80;29.30;;;;;;5009523;28;20085;-63
2023/02/09 06:27:03;;;;;;;25.20;15.73;;;18.90;29.30;;;;;;5008764;28;20042;-63
2023/02/09 06:29:31;;;;;;;20.73;14.38;;;18.90;29.30;;;;;;5007597;28;20055;-63
2023/02/09 06:31:58;;;;;;;24.02;14.75;;;18.90;29.20;;;;;;5011557;28;20073;-63
2023/02/09 06:34:25;;;;;;;23.88;16.67;;;19.00;29.30;;;;;;5008812;28;20056;-62
2023/02/09 06:36:52;;;;;;;19.95;14.32;;;19.00;29.20;;;;;;5005925;28;20054;-62
2023/02/09 06:39:19;;;;;;;23.75;16.23;;;19.10;29.30;;;;;;5012343;28;20453;-64
2023/02/09 06:41:46;;;;;;;24.65;17.08;;;19.10;29.20;;;;;;5013927;28;20074;-64
2023/02/09 06:44:14;;;;;;;24.38;16.50;;;19.20;29.20;;;;;;5015197;28;20058;-63
2023/02/09 06:46:41;;;;;;;23.13;16.65;;;19.20;29.20;;;;;;5006537;28;20045;-63
2023/02/09 06:49:08;;;;;;;25.17;17.38;;;19.30;29.30;;;;;;5009561;28;20077;-64
2023/02/09 06:51:35;;;;;;;24.50;17.15;;;19.20;29.20;;;;;;5006671;28;20102;-63
2023/02/09 06:54:03;;;;;;;26.17;16.98;;;19.30;29.30;;;;;;5006692;28;20053;-64
2023/02/09 06:56:30;;;;;;;26.70;17.92;;;19.30;29.30;;;;;;5008240;28;20046;-64
2023/02/09 06:58:57;;;;;;;27.65;18.45;;;19.30;29.30;;;;;;5004326;28;20145;-67
2023/02/09 07:01:24;;;;;;;32.03;18.10;;;19.40;29.30;;;;;;5010980;28;20124;-63
2023/02/09 07:03:51;;;;;;;27.50;17.83;;;19.40;29.60;;;;;;5007688;28;20050;-63
2023/02/09 07:06:20;;;;;;;28.08;19.02;;;19.40;29.60;;;;;;4999422;28;20473;-65
2023/02/09 07:08:49;;;;;;;32.78;20.17;;;19.50;29.60;;;;;;5007731;28;20114;-64
2023/02/09 07:11:18;;;;;;;29.80;19.35;;;19.50;29.70;;;;;;5007372;28;20406;-63
2023/02/09 07:13:45;;;;;;;32.22;20.63;;;19.60;29.80;;;;;;5005296;28;20137;-63
2023/02/09 07:16:13;;;;;;;33.42;19.77;;;19.60;29.70;;;;;;5010828;28;20101;-64
2023/02/09 07:18:40;;;;;;;34.03;20.27;;;19.60;29.90;;;;;;4997127;28;20042;-65
2023/02/09 07:21:14;;;;;;;31.92;19.92;;;19.70;30.00;;;;;;5007432;28;20042;-63
2023/02/09 07:23:41;;;;;;;33.17;20.45;;;19.70;30.10;;;;;;5003972;28;20053;-61
2023/02/09 07:26:14;;;;;;;32.28;20.35;;;19.80;30.30;;;;;;4999642;28;20493;-60
2023/02/09 07:28:41;;;;;;;31.73;20.48;;;19.80;30.50;;;;;;5004715;28;20501;-63
2023/02/09 07:31:11;;;;;;;36.92;21.25;;;19.90;30.60;;;;;;5004519;28;20743;-61
2023/02/09 07:33:39;;;;;;;34.55;22.17;;;20.00;30.50;;;;;;5007432;28;20054;-62
2023/02/09 07:36:09;;;;;;;32.42;21.27;;;20.00;30.50;;;;;;5005412;28;20498;-62
2023/02/09 07:38:37;;;;;;;31.92;20.83;;;20.10;30.40;;;;;;5004545;28;20108;-62
2023/02/09 07:41:06;;;;;;;34.55;22.38;;;20.20;30.50;;;;;;5001298;28;20049;-62
2023/02/09 07:43:33;;;;;;;36.55;20.67;;;20.20;30.40;;;;;;5001770;28;20073;-62
2023/02/09 07:46:04;;;;;;;34.35;22.42;;;20.30;30.20;;;;;;4999231;28;20081;-61
2023/02/09 07:48:32;;;;;;;35.65;22.85;;;20.30;30.00;;;;;;5004733;28;20064;-60
2023/02/09 07:51:00;;;;;;;34.55;21.90;;;20.40;29.80;;;;;;5002535;28;20060;-62
2023/02/09 07:53:28;;;;;;;37.22;22.67;;;20.50;29.90;;;;;;4996520;28;20061;-62
2023/02/09 07:55:55;;;;;;;36.22;22.63;;;20.50;29.90;;;;;;4991411;28;20049;-61
2023/02/09 07:58:23;;;;;;;32.25;20.98;;;20.60;30.00;;;;;;5005629;28;20136;-63
2023/02/09 08:00:51;;;;;;;34.70;22.40;;;20.60;29.90;;;;;;5007666;28;20050;-61
2023/02/09 08:03:21;;;;;;;32.67;21.35;;;20.60;29.80;;;;;;5002641;28;20691;-61
2023/02/09 08:06:04;;;;;;;38.72;22.52;;;20.70;29.90;;;;;;5000663;28;20042;-60
2023/02/09 08:08:31;;;;;;;35.38;22.02;;;20.80;29.90;;;;;;5000782;28;20050;-61
2023/02/09 08:11:00;;;;;;;35.42;21.85;;;20.80;29.90;;;;;;5003758;28;20064;-63
2023/02/09 08:13:32;;;;;;;33.78;22.02;;;20.80;29.80;;;;;;5002558;28;20410;-64
2023/02/09 08:16:04;;;;;;;33.05;21.58;;;20.90;29.80;;;;;;5005721;28;20172;-61
2023/02/09 08:18:36;;;;;;;32.40;21.27;;;20.90;29.90;;;;;;5004183;28;20077;-63
2023/02/09 08:21:07;;;;;;;37.85;21.88;;;21.00;29.90;;;;;;5003576;28;20360;-62
2023/02/09 08:23:35;;;;;;;34.75;20.45;;;21.00;29.80;;;;;;5004732;28;20050;-64
2023/02/09 08:26:10;;;;;;;35.10;21.30;;;21.00;29.80;;;;;;5003474;28;20490;-64
2023/02/09 08:28:43;;;;;;;34.13;21.25;;;21.10;30.00;;;;;;5004346;28;20085;-64
2023/02/09 08:31:16;;;;;;;34.65;21.00;;;21.10;30.00;;;;;;5003768;28;20406;-66
2023/02/09 08:33:45;;;;;;;32.10;20.55;;;21.20;30.10;;;;;;5000297;28;20133;-62
2023/02/09 08:36:13;;;;;;;34.15;19.80;;;21.20;30.10;;;;;;5002865;28;20056;-62
2023/02/09 08:38:41;;;;;;;33.22;19.80;;;21.20;30.00;;;;;;5003630;28;20077;-61
2023/02/09 08:41:11;;;;;;;32.08;19.98;;;21.30;29.90;;;;;;5004396;28;20077;-61
2023/02/09 08:43:38;;;;;;;;;;;21.30;30.00;;;;;;5005658;28;20149;-60
2023/02/09 08:46:11;;;;;;;29.50;18.45;;;21.40;30.10;;;;;;5000897;28;19929;-61
2023/02/09 08:48:41;;;;;;;30.75;18.60;;;21.40;30.70;;;;;;5002598;28;20045;-61
2023/02/09 08:51:10;;;;;;;34.20;18.50;;;21.40;30.30;;;;;;5004328;28;20133;-60
2023/02/09 08:53:38;;;;;;;29.45;17.75;;;21.50;30.50;;;;;;4990138;28;20042;-62
2023/02/09 08:56:05;;;;;;;27.33;18.08;;;21.50;30.50;;;;;;5000404;28;20144;-63
2023/02/09 08:58:33;;;;;;;30.48;18.77;;;21.60;30.20;;;;;;4998423;28;20053;-63
2023/02/09 09:01:01;;;;;;;27.25;17.88;;;21.60;30.10;;;;;;5005134;28;20489;-62
2023/02/09 09:03:30;;;;;;;26.95;16.80;;;21.70;30.00;;;;;;5003053;28;20050;-62
2023/02/09 09:06:03;;;;;;;29.63;17.15;;;21.70;29.90;;;;;;5003698;28;20053;-61
2023/02/09 09:08:32;;;;;;;27.88;16.67;;;21.70;29.70;;;;;;4998351;28;20142;-62
2023/02/09 09:10:59;;;;;;;26.25;16.90;;;21.70;29.50;;;;;;5001482;28;20136;-63
2023/02/09 09:13:26;;;;;;;23.25;15.57;;;21.70;29.30;;;;;;4996178;28;20108;-62
2023/02/09 09:15:54;;;;;;;23.38;15.13;;;21.70;29.20;;;;;;5001748;28;20074;-62
2023/02/09 09:18:23;;;;;;;25.50;17.05;;;21.70;29.30;;;;;;5001392;28;20081;-61
2023/02/09 09:20:51;;;;;;;22.67;16.05;;;21.80;29.40;;;;;;4981920;28;20042;-62
2023/02/09 09:23:19;;;;;;;22.88;15.48;;;21.80;29.50;;;;;;5005795;28;20489;-63
2023/02/09 09:25:47;;;;;;;28.23;15.77;;;21.80;29.40;;;;;;5005247;28;20053;-64
2023/02/09 09:28:14;;;;;;;21.30;14.85;;;21.80;29.40;;;;;;5007002;28;20081;-63
2023/02/09 09:30:42;;;;;;;26.02;16.05;;;21.80;29.40;;;;;;5004287;28;20038;-64
2023/02/09 09:33:10;;;;;;;25.60;15.30;;;21.80;29.40;;;;;;5003372;28;20426;-66
2023/02/09 09:35:37;;;;;;;22.95;14.95;;;21.90;29.40;;;;;;5006863;28;20053;-62
2023/02/09 09:38:04;;;;;;;26.02;16.05;;;21.90;29.40;;;;;;5003082;28;20152;-66
2023/02/09 09:40:35;;;;;;;24.05;14.52;;;21.90;29.30;;;;;;5004295;28;20921;-62
2023/02/09 09:43:07;;;;;;;30.15;15.85;;;21.90;29.20;;;;;;5005390;28;20054;-63
2023/02/09 09:45:37;;;;;;;28.23;16.58;;;22.00;29.20;;;;;;5005416;28;20417;-63
2023/02/09 09:48:08;;;;;;;23.85;15.25;;;22.00;29.10;;;;;;5004112;28;20421;-63
2023/02/09 09:50:41;;;;;;;23.00;14.35;;;22.00;29.10;;;;;;4996853;28;20046;-62
2023/02/09 09:53:30;;;;;;;21.10;14.00;;;22.00;29.00;;;;;;5004114;28;20060;-64
2023/02/09 09:56:01;;;;;;;29.45;15.57;;;22.10;29.10;;;;;;5004983;28;20065;-62
2023/02/09 09:58:31;;;;;;;24.35;13.65;;;22.10;29.10;;;;;;5006294;28;20088;-62
2023/02/09 10:00:59;;;;;;;26.40;14.73;;;22.10;29.10;;;;;;4982031;28;20080;-63
2023/02/09 10:03:26;;;;;;;25.08;13.43;;;22.10;29.00;;;;;;5002439;28;20054;-63
2023/02/09 10:05:58;;;;;;;23.30;14.32;;;22.20;29.00;;;;;;4984978;28;20462;-62
2023/02/09 10:08:39;;;;;;;23.63;13.98;;;22.20;28.90;;;;;;5005734;28;20136;-61
2023/02/09 10:11:14;;;;;;;22.23;14.13;;;22.20;28.90;;;;;;5003619;28;20049;-62
2023/02/09 10:13:47;;;;;;;26.60;13.65;;;22.20;28.80;;;;;;5002004;28;20081;-61
2023/02/09 10:16:26;;;;;;;22.90;13.50;;;22.20;28.80;;;;;;4986314;28;20084;-63
2023/02/09 10:18:56;;;;;;;25.00;13.57;;;22.20;28.70;;;;;;5003803;28;20058;-64
2023/02/09 10:21:27;;;;;;;21.98;13.25;;;22.30;28.80;;;;;;4996605;28;20049;-62
2023/02/09 10:24:11;;;;;;;23.92;13.73;;;22.30;28.70;;;;;;5003391;28;20360;-61
2023/02/09 10:26:41;;;;;;;24.23;12.98;;;22.30;28.70;;;;;;4975433;28;20046;-61
2023/02/09 10:29:23;;;;;;;20.27;12.38;;;22.30;28.70;;;;;;5000049;28;20050;-63
2023/02/09 10:32:02;;;;;;;26.02;12.82;;;22.30;28.60;;;;;;5002655;28;20042;-64
2023/02/09 10:34:40;;;;;;;23.90;13.25;;;22.40;28.70;;;;;;5002603;28;20144;-64
2023/02/09 10:37:31;;;;;;;18.92;12.50;;;22.40;28.80;;;;;;4999980;28;20053;-64
2023/02/09 10:40:16;;;;;;;21.17;12.60;;;22.40;28.80;;;;;;5001803;28;20056;-66
2023/02/09 10:42:59;;;;;;;18.77;12.32;;;22.40;28.80;;;;;;5001562;28;20050;-61
2023/02/09 10:45:36;;;;;;;22.15;13.30;;;22.50;28.80;;;;;;5001339;28;20124;-63
2023/02/09 10:48:18;;;;;;;18.90;12.20;;;22.50;28.80;;;;;;5006229;28;20518;-63
2023/02/09 10:51:06;;;;;;;18.30;11.77;;;22.50;28.70;;;;;;5002057;28;20133;-61
2023/02/09 10:54:01;;;;;;;20.45;11.25;;;22.50;28.60;;;;;;4983714;28;20054;-62
2023/02/09 10:56:48;;;;;;;18.42;11.57;;;22.50;28.60;;;;;;5005137;28;20085;-63
2023/02/09 10:59:18;;;;;;;18.35;10.85;;;22.60;28.80;;;;;;5005401;28;20120;-65
2023/02/09 11:02:00;;;;;;;16.65;10.90;;;22.60;28.60;;;;;;4989664;28;20058;-64
2023/02/09 11:04:39;;;;;;;22.58;10.70;;;22.60;28.50;;;;;;4989643;28;20112;-65
2023/02/09 11:07:15;;;;;;;15.63;10.52;;;22.60;28.40;;;;;;5007630;28;20042;-65
2023/02/09 11:09:46;;;;;;;15.48;10.30;;;22.60;28.40;;;;;;5004961;28;20328;-63
2023/02/09 11:12:13;;;;;;;17.23;10.73;;;22.60;28.30;;;;;;5005873;28;20056;-64
2023/02/09 11:14:42;;;;;;;14.90;9.70;;;22.60;28.30;;;;;;5007442;28;20053;-64
2023/02/09 11:17:35;;;;;;;13.90;10.20;;;22.60;28.20;;;;;;5008973;28;20042;-64
2023/02/09 11:20:25;;;;;;;13.23;10.43;;;22.60;28.20;;;;;;5009961;28;20053;-64
2023/02/09 11:23:28;;;;;;;15.55;11.07;;;22.60;28.20;;;;;;5004169;28;20042;-64
2023/02/09 11:26:22;;;;;;;14.93;9.70;;;22.60;28.20;;;;;;4996947;28;20054;-63
2023/02/09 11:29:15;;;;;;;12.80;10.10;;;22.60;28.20;;;;;;5006210;28;20064;-63
2023/02/09 11:32:17;;;;;;;14.63;10.05;;;22.60;28.10;;;;;;5006507;28;20144;-62
2023/02/09 11:35:08;;;;;;;14.20;8.93;;;22.60;28.10;;;;;;5006838;28;20141;-62
2023/02/09 11:38:02;;;;;;;13.88;10.00;;;22.60;28.50;;;;;;4979223;28;20414;-60
2023/02/09 11:40:50;;;;;;;12.95;9.15;;;22.60;28.00;;;;;;4986386;28;20054;-64
2023/02/09 11:43:26;;;;;;;13.80;10.10;;;22.60;28.00;;;;;;4994980;28;20052;-64
2023/02/09 11:46:02;;;;;;;15.50;10.75;;;22.70;28.10;;;;;;4991870;28;20054;-63
2023/02/09 11:48:34;;;;;;;13.00;9.77;;;22.70;28.10;;;;;;4993576;28;20055;-63
2023/02/09 11:51:15;;;;;;;11.98;9.52;;;22.70;28.00;;;;;;4995559;28;20061;-62
2023/02/09 11:54:09;;;;;;;10.63;8.85;;;22.70;28.00;;;;;;4995634;28;20481;-65
2023/02/09 11:56:40;;;;;;;13.25;9.48;;;22.70;28.00;;;;;;4976297;28;20050;-62
2023/02/09 11:59:20;;;;;;;16.30;9.50;;;22.70;27.90;;;;;;4989921;28;20046;-62
2023/02/09 12:02:27;;;;;;;16.05;9.63;;;22.70;28.00;;;;;;4992516;28;20061;-63
2023/02/09 12:04:59;;;;;;;13.02;9.85;;;22.70;27.90;;;;;;4994350;28;20054;-62
2023/02/09 12:08:01;;;;;;;29.73;10.00;;;22.70;27.80;;;;;;4980387;28;20172;-62
2023/02/09 12:10:47;;;;;;;11.60;9.13;;;22.80;27.80;;;;;;4994091;28;20141;-62
2023/02/09 12:13:39;;;;;;;14.75;9.50;;;22.80;27.80;;;;;;4992831;28;20050;-61
2023/02/09 12:16:18;;;;;;;13.70;9.73;;;22.80;27.60;;;;;;4991503;28;20058;-62
2023/02/09 12:18:46;;;;;;;13.77;9.77;;;22.80;27.50;;;;;;4989990;28;20054;-59
2023/02/09 12:21:27;;;;;;;14.77;10.27;;;22.80;27.50;;;;;;4989991;28;20042;-59
2023/02/09 12:23:54;;;;;;;13.40;9.75;;;22.80;27.50;;;;;;4987654;28;20577;-63
2023/02/09 12:26:35;;;;;;;11.73;8.75;;;22.90;27.50;;;;;;4992657;28;20058;-62
2023/02/09 12:29:33;;;;;;;14.15;9.80;;;22.90;27.40;;;;;;4993603;28;20089;-62
2023/02/09 12:32:22;;;;;;;13.10;9.23;;;22.90;27.40;;;;;;4993627;28;20489;-62
2023/02/09 12:34:52;;;;;;;11.93;9.32;;;22.90;27.40;;;;;;4995231;28;20050;-61
2023/02/09 12:37:26;;;;;;;12.55;9.20;;;23.00;27.30;;;;;;4994011;28;20409;-62
2023/02/09 12:40:17;;;;;;;13.00;9.73;;;23.00;27.30;;;;;;4996179;28;20057;-62
2023/02/09 12:43:13;;;;;;;13.35;9.68;;;23.00;27.30;;;;;;4991261;28;20391;-62
2023/02/09 12:45:42;;;;;;;12.68;9.43;;;23.00;27.30;;;;;;4987647;28;20220;-62
2023/02/09 12:48:18;;;;;;;12.90;9.68;;;23.00;27.30;;;;;;5005678;28;20048;-61
2023/02/09 12:50:52;;;;;;;11.48;8.60;;;23.10;27.20;;;;;;5006936;28;21444;-63
2023/02/09 12:53:33;;;;;;;11.05;8.05;;;23.10;27.20;;;;;;5004265;28;20057;-62
2023/02/09 12:56:22;;;;;;;12.68;9.60;;;23.10;27.20;;;;;;5005712;28;20140;-60
2023/02/09 12:59:04;;;;;;;12.65;9.02;;;23.10;27.20;;;;;;4977602;28;20049;-61
2023/02/09 13:02:11;;;;;;;14.65;8.70;;;23.10;27.20;;;;;;4998124;28;20137;-61
2023/02/09 13:04:53;;;;;;;11.10;8.02;;;23.20;27.10;;;;;;4997492;28;20129;-61